Meteo Giornale » Osservazioni meteo Slovenia » Ljubljana-Brnik

ore: 03:30 - Osservazioni Meteo Ljubljana-Brnik
Lat. 46° 13' N Lon. 14° 29' E Alt. 385 metri s.l.m.

molto_nuvoloso

18 °C

Molto Nuvoloso

Temp. 24 Ore

15 °C

27 °C

Nord

7.4 Km/h

Dew point 14 °C

Umidità 77 %

Visibilità  10 Km

Il sole sorge alle ore 06:23

Il sole tramonta alle ore 19:39

Data e Ora Cielo e Fenomeni T °C DP °C Um. % Pres. hPa Vis. km Vento km/h
Oggi h: 03:30 molto_nuvoloso Molto Nuvoloso 18 14 77 1021 10 N 7.4
Oggi h: 03:00 molto_nuvoloso Molto Nuvoloso 18 14 77 1021 10 N 7.4
Oggi h: 02:30 molto_nuvoloso Molto Nuvoloso 19 13 68 1022 10 N/NO 13
Oggi h: 02:00 molto_nuvoloso Molto Nuvoloso 19 13 68 1022 10 N/NO 16.7
Oggi h: 01:30 nuvoloso_temporali Temporale nelle vicinanze 19 14 72 1022 10 NO 24
Oggi h: 01:00 molto_nuvoloso Molto Nuvoloso 15 13 87 1022 10 N 5.5
Oggi h: 00:30 poco_nuvoloso Poco Nuvoloso 15 13 87 1021 10 N 3.7
Oggi h: 00:00 poco_nuvoloso Poco Nuvoloso 16 13 82 1021 10 N 1.8
Ieri h: 23:30 poco_nuvoloso Poco Nuvoloso 16 14 87 1021 10 N 0
Ieri h: 23:00 poco_nuvoloso Poco Nuvoloso 16 13 82 1021 10 N 3.7
Ieri h: 22:30 poco_nuvoloso Poco Nuvoloso 17 14 82 1021 10 O 7.4
Ieri h: 22:00 poco_nuvoloso Poco Nuvoloso 18 14 77 1021 10 N 3.7
Ieri h: 21:30 poco_nuvoloso Poco Nuvoloso 19 14 72 1020 10 N 1.8
Ieri h: 21:00 poco_nuvoloso Poco Nuvoloso 19 14 72 1020 10 N 5.5
Ieri h: 20:30 poco_nuvoloso Poco Nuvoloso 20 15 72 1020 10 N 3.7
Ieri h: 20:00 poco_nuvoloso Poco Nuvoloso 21 15 68 1019 10 N 1.8
Ieri h: 19:30 poco_nuvoloso Poco Nuvoloso 22 15 64 1019 10 N 3.7
Ieri h: 19:00 poco_nuvoloso Poco Nuvoloso 25 14 50 1019 10 E/SE 7.4
Ieri h: 18:30 poco_nuvoloso Poco Nuvoloso 26 12 41 1019 10 E/SE 11.1
Ieri h: 18:00 poco_nuvoloso Poco Nuvoloso 26 13 44 1019 10 E 13
Ieri h: 17:30 poco_nuvoloso Poco Nuvoloso 27 12 39 1019 10 E 7.4
Ieri h: 17:00 poco_nuvoloso Poco Nuvoloso 27 12 39 1020 10 E 13
Ieri h: 16:30 nuvoloso Nuvoloso 27 12 39 1020 10 E/SE 7.4
Ieri h: 16:00 molto_nuvoloso Molto Nuvoloso 27 11 36 1020 10 E 14.8
Ieri h: 15:30 molto_nuvoloso Molto Nuvoloso 27 10 34 1020 10 SE 11.1
Ieri h: 15:00 nuvoloso Nuvoloso 27 11 36 1020 10 E 13
Ieri h: 14:30 nuvoloso Nuvoloso 26 10 36 1020 10 S/SE 11.1
Ieri h: 14:00 nuvoloso Nuvoloso 27 13 42 1021 10 SE 7.4
Ieri h: 13:30 poco_nuvoloso Poco Nuvoloso 26 12 41 1021 10 E 13
Ieri h: 13:00 poco_nuvoloso Poco Nuvoloso 26 13 44 1021 10 E 14.8
Ieri h: 12:30 nuvoloso Nuvoloso 25 13 47 1022 10 E 7.4
Ieri h: 12:00 molto_nuvoloso Molto Nuvoloso 25 13 47 1022 10 E 7.4
Ieri h: 11:30 molto_nuvoloso Molto Nuvoloso 24 12 47 1022 10 N 3.7
Ieri h: 11:00 nuvoloso Nuvoloso 24 13 50 1022 10 N 3.7
Ieri h: 10:30 nuvoloso Nuvoloso 23 13 53 1022 10 N 1.8
Ieri h: 10:00 nuvoloso Nuvoloso 22 15 64 1022 10 N 1.8
Ieri h: 09:30 molto_nuvoloso Molto Nuvoloso 20 17 82 1022 10 N 1.8
Ieri h: 09:00 molto_nuvoloso Molto Nuvoloso 19 16 82 1022 10 N 3.7
Ieri h: 08:30 molto_nuvoloso Molto Nuvoloso 18 16 88 1022 10 NO 7.4
Ieri h: 08:00 molto_nuvoloso Molto Nuvoloso 17 15 88 1022 10 N 5.5
Ieri h: 07:30 coperto_pioggia Pioggia 17 16 93 1021 10 N 3.7
Ieri h: 07:00 coperto_pioggia Pioggia 17 16 93 1021 10 N 3.7
Ieri h: 06:30 coperto_pioggia Pioggia 17 15 88 1021 10 N 3.7
Ieri h: 06:00 coperto_pioggia Pioggia 18 16 88 1020 10 N 3.7
Ieri h: 05:30 coperto_pioggia Pioggia 18 16 88 1020 10 N 3.7
Ieri h: 05:00 coperto Coperto 19 15 77 1020 10 N 3.7